sensor_id;sensor_type;location;lat;lon;timestamp;temperature;humidity
45803;DHT22;31504;51.716;9.184;2023-03-01T00:02:59;19.30;35.20
45803;DHT22;31504;51.716;9.184;2023-03-01T00:05:59;19.30;35.10
45803;DHT22;31504;51.716;9.184;2023-03-01T00:09:00;19.30;35.10
45803;DHT22;31504;51.716;9.184;2023-03-01T00:12:00;19.30;35.20
45803;DHT22;31504;51.716;9.184;2023-03-01T00:15:01;19.30;35.10
45803;DHT22;31504;51.716;9.184;2023-03-01T00:18:02;19.30;35.20
45803;DHT22;31504;51.716;9.184;2023-03-01T00:21:02;19.30;35.20
45803;DHT22;31504;51.716;9.184;2023-03-01T00:24:03;19.30;35.10
45803;DHT22;31504;51.716;9.184;2023-03-01T00:27:03;19.30;35.10
45803;DHT22;31504;51.716;9.184;2023-03-01T00:30:04;19.30;35.10
45803;DHT22;31504;51.716;9.184;2023-03-01T00:33:05;19.30;35.10
45803;DHT22;31504;51.716;9.184;2023-03-01T00:36:06;19.30;35.10
45803;DHT22;31504;51.716;9.184;2023-03-01T00:39:09;19.30;35.10
45803;DHT22;31504;51.716;9.184;2023-03-01T00:42:10;19.30;35.20
45803;DHT22;31504;51.716;9.184;2023-03-01T00:45:11;19.30;35.10
45803;DHT22;31504;51.716;9.184;2023-03-01T00:48:13;19.30;35.20
45803;DHT22;31504;51.716;9.184;2023-03-01T00:51:18;19.30;35.10
45803;DHT22;31504;51.716;9.184;2023-03-01T00:54:19;19.30;35.10
45803;DHT22;31504;51.716;9.184;2023-03-01T00:57:20;19.30;35.10
45803;DHT22;31504;51.716;9.184;2023-03-01T01:00:20;19.20;35.00
45803;DHT22;31504;51.716;9.184;2023-03-01T01:03:21;19.20;35.10
45803;DHT22;31504;51.716;9.184;2023-03-01T01:06:22;19.20;35.00
45803;DHT22;31504;51.716;9.184;2023-03-01T01:09:23;19.30;35.00
45803;DHT22;31504;51.716;9.184;2023-03-01T01:12:23;19.30;35.00
45803;DHT22;31504;51.716;9.184;2023-03-01T01:15:24;19.30;35.00
45803;DHT22;31504;51.716;9.184;2023-03-01T01:18:24;19.20;34.90
45803;DHT22;31504;51.716;9.184;2023-03-01T01:21:25;19.20;35.00
45803;DHT22;31504;51.716;9.184;2023-03-01T01:24:25;19.20;35.60
45803;DHT22;31504;51.716;9.184;2023-03-01T01:27:26;19.20;35.00
45803;DHT22;31504;51.716;9.184;2023-03-01T01:30:26;19.20;34.90
45803;DHT22;31504;51.716;9.184;2023-03-01T01:33:27;19.20;35.00
45803;DHT22;31504;51.716;9.184;2023-03-01T01:36:28;19.20;35.00
45803;DHT22;31504;51.716;9.184;2023-03-01T01:39:30;19.20;35.00
45803;DHT22;31504;51.716;9.184;2023-03-01T01:42:30;19.20;35.00
45803;DHT22;31504;51.716;9.184;2023-03-01T01:45:32;19.20;35.00
45803;DHT22;31504;51.716;9.184;2023-03-01T01:48:41;19.20;34.90
45803;DHT22;31504;51.716;9.184;2023-03-01T01:51:44;19.20;34.90
45803;DHT22;31504;51.716;9.184;2023-03-01T01:54:48;19.20;34.90
45803;DHT22;31504;51.716;9.184;2023-03-01T01:57:56;19.20;35.00
45803;DHT22;31504;51.716;9.184;2023-03-01T02:00:58;19.20;34.90
45803;DHT22;31504;51.716;9.184;2023-03-01T02:04:01;19.20;35.00
45803;DHT22;31504;51.716;9.184;2023-03-01T02:07:03;19.20;35.00
45803;DHT22;31504;51.716;9.184;2023-03-01T02:10:06;19.20;34.90
45803;DHT22;31504;51.716;9.184;2023-03-01T02:13:07;19.20;34.80
45803;DHT22;31504;51.716;9.184;2023-03-01T02:16:08;19.20;34.80
45803;DHT22;31504;51.716;9.184;2023-03-01T02:19:10;19.20;34.90
45803;DHT22;31504;51.716;9.184;2023-03-01T02:22:30;19.20;34.90
45803;DHT22;31504;51.716;9.184;2023-03-01T02:28:32;19.20;34.80
45803;DHT22;31504;51.716;9.184;2023-03-01T02:31:33;19.20;34.90
45803;DHT22;31504;51.716;9.184;2023-03-01T02:34:43;19.20;34.90
45803;DHT22;31504;51.716;9.184;2023-03-01T02:37:44;19.20;34.90
45803;DHT22;31504;51.716;9.184;2023-03-01T02:40:44;19.20;34.90
45803;DHT22;31504;51.716;9.184;2023-03-01T02:43:45;19.20;34.80
45803;DHT22;31504;51.716;9.184;2023-03-01T02:46:47;19.20;34.80
45803;DHT22;31504;51.716;9.184;2023-03-01T02:49:47;19.20;34.90
45803;DHT22;31504;51.716;9.184;2023-03-01T02:52:53;19.20;34.80
45803;DHT22;31504;51.716;9.184;2023-03-01T02:55:56;19.20;35.40
45803;DHT22;31504;51.716;9.184;2023-03-01T02:58:57;19.20;34.80
45803;DHT22;31504;51.716;9.184;2023-03-01T03:02:00;19.20;34.80
45803;DHT22;31504;51.716;9.184;2023-03-01T03:05:11;19.20;34.80
45803;DHT22;31504;51.716;9.184;2023-03-01T03:08:11;19.10;34.70
45803;DHT22;31504;51.716;9.184;2023-03-01T03:11:12;19.10;34.70
45803;DHT22;31504;51.716;9.184;2023-03-01T03:14:13;19.10;34.70
45803;DHT22;31504;51.716;9.184;2023-03-01T03:17:14;19.10;34.70
45803;DHT22;31504;51.716;9.184;2023-03-01T03:20:15;19.20;34.80
45803;DHT22;31504;51.716;9.184;2023-03-01T03:23:20;19.30;34.90
45803;DHT22;31504;51.716;9.184;2023-03-01T03:26:20;19.30;34.90
45803;DHT22;31504;51.716;9.184;2023-03-01T03:29:21;19.40;35.10
45803;DHT22;31504;51.716;9.184;2023-03-01T03:32:21;19.40;35.10
45803;DHT22;31504;51.716;9.184;2023-03-01T03:35:28;19.40;35.20
45803;DHT22;31504;51.716;9.184;2023-03-01T03:38:32;19.40;35.20
45803;DHT22;31504;51.716;9.184;2023-03-01T03:41:34;19.50;35.20
45803;DHT22;31504;51.716;9.184;2023-03-01T03:44:34;19.50;35.20
45803;DHT22;31504;51.716;9.184;2023-03-01T03:47:36;19.50;35.20
45803;DHT22;31504;51.716;9.184;2023-03-01T03:50:37;19.60;35.20
45803;DHT22;31504;51.716;9.184;2023-03-01T03:53:38;19.50;35.20
45803;DHT22;31504;51.716;9.184;2023-03-01T03:56:39;19.40;35.40
45803;DHT22;31504;51.716;9.184;2023-03-01T03:59:39;19.30;35.50
45803;DHT22;31504;51.716;9.184;2023-03-01T04:02:40;19.30;35.40
45803;DHT22;31504;51.716;9.184;2023-03-01T04:05:41;19.30;35.20
45803;DHT22;31504;51.716;9.184;2023-03-01T04:08:41;19.40;35.10
45803;DHT22;31504;51.716;9.184;2023-03-01T04:11:42;19.50;35.00
45803;DHT22;31504;51.716;9.184;2023-03-01T04:14:42;19.50;34.90
45803;DHT22;31504;51.716;9.184;2023-03-01T04:17:44;19.50;34.90
45803;DHT22;31504;51.716;9.184;2023-03-01T04:20:45;19.50;35.00
45803;DHT22;31504;51.716;9.184;2023-03-01T04:23:45;19.50;35.10
45803;DHT22;31504;51.716;9.184;2023-03-01T04:26:46;19.60;35.10
45803;DHT22;31504;51.716;9.184;2023-03-01T04:29:46;19.60;35.20
45803;DHT22;31504;51.716;9.184;2023-03-01T04:32:47;19.50;35.30
45803;DHT22;31504;51.716;9.184;2023-03-01T04:35:47;19.40;35.40
45803;DHT22;31504;51.716;9.184;2023-03-01T04:38:50;19.40;35.30
45803;DHT22;31504;51.716;9.184;2023-03-01T04:41:52;19.30;35.30
45803;DHT22;31504;51.716;9.184;2023-03-01T04:44:52;19.30;35.10
45803;DHT22;31504;51.716;9.184;2023-03-01T04:47:53;19.30;35.10
45803;DHT22;31504;51.716;9.184;2023-03-01T04:50:53;19.30;35.00
45803;DHT22;31504;51.716;9.184;2023-03-01T04:53:54;19.30;35.00
45803;DHT22;31504;51.716;9.184;2023-03-01T04:56:54;19.30;34.90
45803;DHT22;31504;51.716;9.184;2023-03-01T04:59:55;19.20;34.80
45803;DHT22;31504;51.716;9.184;2023-03-01T05:02:56;19.30;34.80
45803;DHT22;31504;51.716;9.184;2023-03-01T05:05:58;19.30;34.70
45803;DHT22;31504;51.716;9.184;2023-03-01T05:08:59;19.20;34.60
45803;DHT22;31504;51.716;9.184;2023-03-01T05:12:00;19.20;34.60
45803;DHT22;31504;51.716;9.184;2023-03-01T05:15:00;19.20;34.70
45803;DHT22;31504;51.716;9.184;2023-03-01T05:18:01;19.20;34.60
45803;DHT22;31504;51.716;9.184;2023-03-01T05:21:08;19.20;34.60
45803;DHT22;31504;51.716;9.184;2023-03-01T05:24:09;19.20;34.60
45803;DHT22;31504;51.716;9.184;2023-03-01T05:27:11;19.20;34.50
45803;DHT22;31504;51.716;9.184;2023-03-01T05:30:12;19.20;34.50
45803;DHT22;31504;51.716;9.184;2023-03-01T05:33:15;19.20;34.50
45803;DHT22;31504;51.716;9.184;2023-03-01T05:36:15;19.20;34.40
45803;DHT22;31504;51.716;9.184;2023-03-01T05:39:16;19.20;34.40
45803;DHT22;31504;51.716;9.184;2023-03-01T05:42:17;19.20;34.40
45803;DHT22;31504;51.716;9.184;2023-03-01T05:45:17;19.20;34.30
45803;DHT22;31504;51.716;9.184;2023-03-01T05:48:18;19.20;34.40
45803;DHT22;31504;51.716;9.184;2023-03-01T05:51:19;19.30;34.40
45803;DHT22;31504;51.716;9.184;2023-03-01T05:54:20;19.30;34.50
45803;DHT22;31504;51.716;9.184;2023-03-01T05:57:21;19.30;34.60
45803;DHT22;31504;51.716;9.184;2023-03-01T06:00:22;19.20;34.60
45803;DHT22;31504;51.716;9.184;2023-03-01T06:03:22;19.20;35.30
45803;DHT22;31504;51.716;9.184;2023-03-01T06:06:23;19.20;34.60
45803;DHT22;31504;51.716;9.184;2023-03-01T06:09:24;19.10;34.50
45803;DHT22;31504;51.716;9.184;2023-03-01T06:12:26;19.10;34.50
45803;DHT22;31504;51.716;9.184;2023-03-01T06:15:26;19.10;34.50
45803;DHT22;31504;51.716;9.184;2023-03-01T06:18:27;19.10;34.40
45803;DHT22;31504;51.716;9.184;2023-03-01T06:21:27;19.10;34.40
45803;DHT22;31504;51.716;9.184;2023-03-01T06:24:28;19.10;34.40
45803;DHT22;31504;51.716;9.184;2023-03-01T06:27:29;19.10;34.40
45803;DHT22;31504;51.716;9.184;2023-03-01T06:30:29;19.10;34.40
45803;DHT22;31504;51.716;9.184;2023-03-01T06:33:29;19.10;34.30
45803;DHT22;31504;51.716;9.184;2023-03-01T06:36:30;19.10;34.30
45803;DHT22;31504;51.716;9.184;2023-03-01T06:39:31;19.10;34.20
45803;DHT22;31504;51.716;9.184;2023-03-01T06:42:31;19.10;34.30
45803;DHT22;31504;51.716;9.184;2023-03-01T06:45:31;19.10;34.20
45803;DHT22;31504;51.716;9.184;2023-03-01T06:48:33;19.10;34.20
45803;DHT22;31504;51.716;9.184;2023-03-01T06:51:33;19.10;34.20
45803;DHT22;31504;51.716;9.184;2023-03-01T06:54:34;19.10;34.20
45803;DHT22;31504;51.716;9.184;2023-03-01T06:57:34;19.10;34.20
45803;DHT22;31504;51.716;9.184;2023-03-01T07:00:35;19.10;34.10
45803;DHT22;31504;51.716;9.184;2023-03-01T07:03:35;19.10;34.20
45803;DHT22;31504;51.716;9.184;2023-03-01T07:06:35;19.10;34.20
45803;DHT22;31504;51.716;9.184;2023-03-01T07:09:36;19.10;34.20
45803;DHT22;31504;51.716;9.184;2023-03-01T07:12:36;19.00;34.20
45803;DHT22;31504;51.716;9.184;2023-03-01T07:15:37;19.00;34.20
45803;DHT22;31504;51.716;9.184;2023-03-01T07:18:37;19.00;34.20
45803;DHT22;31504;51.716;9.184;2023-03-01T07:21:38;19.00;34.10
45803;DHT22;31504;51.716;9.184;2023-03-01T07:24:41;19.00;34.00
45803;DHT22;31504;51.716;9.184;2023-03-01T07:27:42;19.00;34.00
45803;DHT22;31504;51.716;9.184;2023-03-01T07:30:42;19.10;34.00
45803;DHT22;31504;51.716;9.184;2023-03-01T07:33:42;19.10;34.00
45803;DHT22;31504;51.716;9.184;2023-03-01T07:36:43;19.10;33.90
45803;DHT22;31504;51.716;9.184;2023-03-01T07:39:45;19.10;33.90
45803;DHT22;31504;51.716;9.184;2023-03-01T07:42:45;19.10;33.80
45803;DHT22;31504;51.716;9.184;2023-03-01T07:45:46;19.10;33.90
45803;DHT22;31504;51.716;9.184;2023-03-01T07:48:46;19.10;33.90
45803;DHT22;31504;51.716;9.184;2023-03-01T07:51:47;19.00;33.80
45803;DHT22;31504;51.716;9.184;2023-03-01T07:54:47;19.10;33.80
45803;DHT22;31504;51.716;9.184;2023-03-01T07:57:47;19.10;33.80
45803;DHT22;31504;51.716;9.184;2023-03-01T08:00:48;19.00;33.80
45803;DHT22;31504;51.716;9.184;2023-03-01T08:03:48;19.00;33.70
45803;DHT22;31504;51.716;9.184;2023-03-01T08:06:49;19.10;33.80
45803;DHT22;31504;51.716;9.184;2023-03-01T08:09:49;19.10;33.80
45803;DHT22;31504;51.716;9.184;2023-03-01T08:12:53;19.10;33.80
45803;DHT22;31504;51.716;9.184;2023-03-01T08:15:53;19.00;33.80
45803;DHT22;31504;51.716;9.184;2023-03-01T08:18:54;19.00;33.80
45803;DHT22;31504;51.716;9.184;2023-03-01T08:21:56;19.00;33.80
45803;DHT22;31504;51.716;9.184;2023-03-01T08:24:58;19.00;33.80
45803;DHT22;31504;51.716;9.184;2023-03-01T08:27:58;19.10;33.80
45803;DHT22;31504;51.716;9.184;2023-03-01T08:30:59;19.00;33.80
45803;DHT22;31504;51.716;9.184;2023-03-01T08:34:00;19.00;33.80
45803;DHT22;31504;51.716;9.184;2023-03-01T08:37:01;19.00;33.80
45803;DHT22;31504;51.716;9.184;2023-03-01T08:40:01;19.00;33.80
45803;DHT22;31504;51.716;9.184;2023-03-01T08:43:03;19.00;33.80
45803;DHT22;31504;51.716;9.184;2023-03-01T08:46:04;19.00;33.90
45803;DHT22;31504;51.716;9.184;2023-03-01T08:49:06;19.00;34.00
45803;DHT22;31504;51.716;9.184;2023-03-01T08:52:07;19.00;34.20
45803;DHT22;31504;51.716;9.184;2023-03-01T08:55:07;19.00;34.30
45803;DHT22;31504;51.716;9.184;2023-03-01T08:58:08;19.00;34.20
45803;DHT22;31504;51.716;9.184;2023-03-01T09:01:09;19.00;34.20
45803;DHT22;31504;51.716;9.184;2023-03-01T09:04:10;19.00;34.20
45803;DHT22;31504;51.716;9.184;2023-03-01T09:07:11;19.00;34.20
45803;DHT22;31504;51.716;9.184;2023-03-01T09:10:11;19.00;34.10
45803;DHT22;31504;51.716;9.184;2023-03-01T09:13:12;19.00;34.10
45803;DHT22;31504;51.716;9.184;2023-03-01T09:16:13;19.00;34.20
45803;DHT22;31504;51.716;9.184;2023-03-01T09:19:14;18.90;34.20
45803;DHT22;31504;51.716;9.184;2023-03-01T09:22:14;18.90;34.20
45803;DHT22;31504;51.716;9.184;2023-03-01T09:25:15;19.00;34.20
45803;DHT22;31504;51.716;9.184;2023-03-01T09:28:15;19.00;34.20
45803;DHT22;31504;51.716;9.184;2023-03-01T09:31:16;18.90;34.20
45803;DHT22;31504;51.716;9.184;2023-03-01T09:34:17;19.00;34.30
45803;DHT22;31504;51.716;9.184;2023-03-01T09:37:23;18.90;34.20
45803;DHT22;31504;51.716;9.184;2023-03-01T09:40:24;18.90;34.30
45803;DHT22;31504;51.716;9.184;2023-03-01T09:43:31;19.00;34.40
45803;DHT22;31504;51.716;9.184;2023-03-01T09:46:36;18.90;34.30
45803;DHT22;31504;51.716;9.184;2023-03-01T09:49:39;18.90;34.40
45803;DHT22;31504;51.716;9.184;2023-03-01T09:52:49;18.90;34.40
45803;DHT22;31504;51.716;9.184;2023-03-01T09:56:00;18.90;34.40
45803;DHT22;31504;51.716;9.184;2023-03-01T10:02:18;18.90;34.30
45803;DHT22;31504;51.716;9.184;2023-03-01T10:08:47;18.90;34.40
45803;DHT22;31504;51.716;9.184;2023-03-01T10:11:52;19.00;34.40
45803;DHT22;31504;51.716;9.184;2023-03-01T10:15:02;19.00;34.40
45803;DHT22;31504;51.716;9.184;2023-03-01T10:18:15;19.00;34.40
45803;DHT22;31504;51.716;9.184;2023-03-01T10:21:17;19.00;34.40
45803;DHT22;31504;51.716;9.184;2023-03-01T10:24:19;19.00;34.50
45803;DHT22;31504;51.716;9.184;2023-03-01T10:27:22;18.90;34.40
45803;DHT22;31504;51.716;9.184;2023-03-01T10:30:32;19.00;34.50
45803;DHT22;31504;51.716;9.184;2023-03-01T10:33:35;18.90;34.50
45803;DHT22;31504;51.716;9.184;2023-03-01T10:36:38;19.00;34.50
45803;DHT22;31504;51.716;9.184;2023-03-01T10:39:53;19.00;34.50
45803;DHT22;31504;51.716;9.184;2023-03-01T10:42:57;19.00;34.40
45803;DHT22;31504;51.716;9.184;2023-03-01T10:45:58;19.00;34.40
45803;DHT22;31504;51.716;9.184;2023-03-01T10:49:17;19.00;34.40
45803;DHT22;31504;51.716;9.184;2023-03-01T10:52:20;19.00;34.40
45803;DHT22;31504;51.716;9.184;2023-03-01T10:55:25;19.00;34.40
45803;DHT22;31504;51.716;9.184;2023-03-01T10:58:27;19.00;34.40
45803;DHT22;31504;51.716;9.184;2023-03-01T11:01:34;19.00;34.40
45803;DHT22;31504;51.716;9.184;2023-03-01T11:04:35;19.00;34.40
45803;DHT22;31504;51.716;9.184;2023-03-01T11:07:46;19.00;34.40
45803;DHT22;31504;51.716;9.184;2023-03-01T11:10:47;19.00;34.50
45803;DHT22;31504;51.716;9.184;2023-03-01T11:13:49;19.00;34.40
45803;DHT22;31504;51.716;9.184;2023-03-01T11:23:13;19.00;34.50
45803;DHT22;31504;51.716;9.184;2023-03-01T11:26:13;19.00;34.50
45803;DHT22;31504;51.716;9.184;2023-03-01T11:29:17;19.00;34.40
45803;DHT22;31504;51.716;9.184;2023-03-01T11:32:22;19.00;34.40
45803;DHT22;31504;51.716;9.184;2023-03-01T11:35:25;19.00;34.90
45803;DHT22;31504;51.716;9.184;2023-03-01T11:38:27;19.00;34.40
45803;DHT22;31504;51.716;9.184;2023-03-01T11:41:30;19.00;34.40
45803;DHT22;31504;51.716;9.184;2023-03-01T11:44:32;19.00;34.40
45803;DHT22;31504;51.716;9.184;2023-03-01T11:47:41;19.00;34.40
45803;DHT22;31504;51.716;9.184;2023-03-01T11:50:44;19.00;34.40
45803;DHT22;31504;51.716;9.184;2023-03-01T11:54:01;19.00;34.40
45803;DHT22;31504;51.716;9.184;2023-03-01T12:07:01;19.00;34.40
45803;DHT22;31504;51.716;9.184;2023-03-01T12:16:37;19.10;34.40
45803;DHT22;31504;51.716;9.184;2023-03-01T12:35:27;19.00;35.00
45803;DHT22;31504;51.716;9.184;2023-03-01T12:38:33;19.10;34.40
45803;DHT22;31504;51.716;9.184;2023-03-01T12:44:46;19.00;34.50
45803;DHT22;31504;51.716;9.184;2023-03-01T12:48:33;19.00;34.50
45803;DHT22;31504;51.716;9.184;2023-03-01T12:51:14;19.10;34.50
45803;DHT22;31504;51.716;9.184;2023-03-01T12:54:15;19.10;34.50
45803;DHT22;31504;51.716;9.184;2023-03-01T12:57:18;19.10;34.40
45803;DHT22;31504;51.716;9.184;2023-03-01T13:00:28;19.20;34.90
45803;DHT22;31504;51.716;9.184;2023-03-01T13:06:35;19.30;34.10
45803;DHT22;31504;51.716;9.184;2023-03-01T13:09:43;19.30;34.20
45803;DHT22;31504;51.716;9.184;2023-03-01T13:15:56;19.40;34.20
45803;DHT22;31504;51.716;9.184;2023-03-01T13:19:12;19.40;34.20
45803;DHT22;31504;51.716;9.184;2023-03-01T13:22:30;19.50;34.20
45803;DHT22;31504;51.716;9.184;2023-03-01T13:25:32;19.50;34.30
45803;DHT22;31504;51.716;9.184;2023-03-01T13:34:47;19.60;34.30
45803;DHT22;31504;51.716;9.184;2023-03-01T13:37:48;19.60;34.50
45803;DHT22;31504;51.716;9.184;2023-03-01T13:43:51;19.70;35.00
45803;DHT22;31504;51.716;9.184;2023-03-01T13:46:53;19.70;35.00
45803;DHT22;31504;51.716;9.184;2023-03-01T13:49:58;19.70;35.20
45803;DHT22;31504;51.716;9.184;2023-03-01T13:52:59;19.70;35.30
45803;DHT22;31504;51.716;9.184;2023-03-01T13:56:03;19.70;35.60
45803;DHT22;31504;51.716;9.184;2023-03-01T13:59:17;19.70;35.60
45803;DHT22;31504;51.716;9.184;2023-03-01T14:02:17;19.70;35.70
45803;DHT22;31504;51.716;9.184;2023-03-01T14:05:18;19.70;35.90
45803;DHT22;31504;51.716;9.184;2023-03-01T14:08:20;19.70;35.90
45803;DHT22;31504;51.716;9.184;2023-03-01T14:14:32;19.70;36.10
45803;DHT22;31504;51.716;9.184;2023-03-01T14:20:43;19.70;36.30
45803;DHT22;31504;51.716;9.184;2023-03-01T14:23:45;19.70;36.20
45803;DHT22;31504;51.716;9.184;2023-03-01T14:26:47;19.70;36.30
45803;DHT22;31504;51.716;9.184;2023-03-01T14:29:54;19.70;36.20
45803;DHT22;31504;51.716;9.184;2023-03-01T14:32:56;19.70;36.00
45803;DHT22;31504;51.716;9.184;2023-03-01T14:35:58;19.70;36.10
45803;DHT22;31504;51.716;9.184;2023-03-01T14:38:59;19.70;36.00
45803;DHT22;31504;51.716;9.184;2023-03-01T14:42:05;19.70;36.00
45803;DHT22;31504;51.716;9.184;2023-03-01T14:45:05;19.80;36.00
45803;DHT22;31504;51.716;9.184;2023-03-01T14:48:06;19.80;35.90
45803;DHT22;31504;51.716;9.184;2023-03-01T14:51:07;19.80;35.90
45803;DHT22;31504;51.716;9.184;2023-03-01T14:54:18;19.80;35.90
45803;DHT22;31504;51.716;9.184;2023-03-01T14:57:23;19.80;36.00
45803;DHT22;31504;51.716;9.184;2023-03-01T15:00:26;19.80;36.00
45803;DHT22;31504;51.716;9.184;2023-03-01T15:03:30;19.80;36.00
45803;DHT22;31504;51.716;9.184;2023-03-01T15:06:31;19.90;36.10
45803;DHT22;31504;51.716;9.184;2023-03-01T15:09:32;19.90;36.10
45803;DHT22;31504;51.716;9.184;2023-03-01T15:12:34;19.90;36.10
45803;DHT22;31504;51.716;9.184;2023-03-01T15:15:36;19.80;36.10
45803;DHT22;31504;51.716;9.184;2023-03-01T15:18:38;19.80;36.10
45803;DHT22;31504;51.716;9.184;2023-03-01T15:21:44;19.80;36.10
45803;DHT22;31504;51.716;9.184;2023-03-01T15:24:47;19.80;36.20
45803;DHT22;31504;51.716;9.184;2023-03-01T15:27:49;19.80;36.20
45803;DHT22;31504;51.716;9.184;2023-03-01T15:30:57;19.80;36.10
45803;DHT22;31504;51.716;9.184;2023-03-01T15:34:21;19.80;36.10
45803;DHT22;31504;51.716;9.184;2023-03-01T15:37:44;19.80;36.00
45803;DHT22;31504;51.716;9.184;2023-03-01T15:40:49;19.90;36.00
45803;DHT22;31504;51.716;9.184;2023-03-01T15:43:49;19.90;36.10
45803;DHT22;31504;51.716;9.184;2023-03-01T15:46:50;19.90;36.00
45803;DHT22;31504;51.716;9.184;2023-03-01T15:49:51;19.90;35.90
45803;DHT22;31504;51.716;9.184;2023-03-01T15:52:52;19.90;35.90
45803;DHT22;31504;51.716;9.184;2023-03-01T15:55:53;19.90;35.90
45803;DHT22;31504;51.716;9.184;2023-03-01T15:58:57;19.90;35.90
45803;DHT22;31504;51.716;9.184;2023-03-01T16:01:57;19.90;35.90
45803;DHT22;31504;51.716;9.184;2023-03-01T16:04:57;19.90;36.10
45803;DHT22;31504;51.716;9.184;2023-03-01T16:07:58;19.90;36.10
45803;DHT22;31504;51.716;9.184;2023-03-01T16:10:59;19.90;36.10
45803;DHT22;31504;51.716;9.184;2023-03-01T16:13:59;19.90;36.10
45803;DHT22;31504;51.716;9.184;2023-03-01T16:16:59;19.90;36.10
45803;DHT22;31504;51.716;9.184;2023-03-01T16:20:00;19.90;36.10
45803;DHT22;31504;51.716;9.184;2023-03-01T16:23:01;19.90;36.20
45803;DHT22;31504;51.716;9.184;2023-03-01T16:26:01;19.90;36.20
45803;DHT22;31504;51.716;9.184;2023-03-01T16:29:02;19.90;36.40
45803;DHT22;31504;51.716;9.184;2023-03-01T16:32:02;19.90;36.40
45803;DHT22;31504;51.716;9.184;2023-03-01T16:35:03;19.90;36.20
45803;DHT22;31504;51.716;9.184;2023-03-01T16:38:03;19.90;36.20
45803;DHT22;31504;51.716;9.184;2023-03-01T16:41:04;19.90;36.20
45803;DHT22;31504;51.716;9.184;2023-03-01T16:44:04;19.90;36.30
45803;DHT22;31504;51.716;9.184;2023-03-01T16:47:05;19.90;36.30
45803;DHT22;31504;51.716;9.184;2023-03-01T16:50:05;19.90;36.30
45803;DHT22;31504;51.716;9.184;2023-03-01T16:53:06;19.90;36.20
45803;DHT22;31504;51.716;9.184;2023-03-01T16:56:07;19.90;36.20
45803;DHT22;31504;51.716;9.184;2023-03-01T16:59:08;19.90;36.30
45803;DHT22;31504;51.716;9.184;2023-03-01T17:02:12;19.90;36.30
45803;DHT22;31504;51.716;9.184;2023-03-01T17:05:14;19.90;36.30
45803;DHT22;31504;51.716;9.184;2023-03-01T17:08:15;19.90;36.40
45803;DHT22;31504;51.716;9.184;2023-03-01T17:11:16;20.00;36.50
45803;DHT22;31504;51.716;9.184;2023-03-01T17:14:17;19.90;36.50
45803;DHT22;31504;51.716;9.184;2023-03-01T17:17:17;20.00;36.60
45803;DHT22;31504;51.716;9.184;2023-03-01T17:20:18;19.90;36.60
45803;DHT22;31504;51.716;9.184;2023-03-01T17:23:18;19.90;36.60
45803;DHT22;31504;51.716;9.184;2023-03-01T17:26:19;19.90;36.60
45803;DHT22;31504;51.716;9.184;2023-03-01T17:29:19;19.80;36.50
45803;DHT22;31504;51.716;9.184;2023-03-01T17:32:20;19.70;36.50
45803;DHT22;31504;51.716;9.184;2023-03-01T17:35:20;19.70;36.10
45803;DHT22;31504;51.716;9.184;2023-03-01T17:38:21;19.70;35.70
45803;DHT22;31504;51.716;9.184;2023-03-01T17:41:21;19.70;35.60
45803;DHT22;31504;51.716;9.184;2023-03-01T17:44:24;19.70;35.60
45803;DHT22;31504;51.716;9.184;2023-03-01T17:47:24;19.70;35.60
45803;DHT22;31504;51.716;9.184;2023-03-01T17:50:25;19.70;35.70
45803;DHT22;31504;51.716;9.184;2023-03-01T17:53:25;19.70;35.70
45803;DHT22;31504;51.716;9.184;2023-03-01T17:56:26;19.70;35.80
45803;DHT22;31504;51.716;9.184;2023-03-01T17:59:26;19.70;35.90
45803;DHT22;31504;51.716;9.184;2023-03-01T18:02:32;19.70;35.90
45803;DHT22;31504;51.716;9.184;2023-03-01T18:05:33;19.60;35.90
45803;DHT22;31504;51.716;9.184;2023-03-01T18:08:34;19.60;36.10
45803;DHT22;31504;51.716;9.184;2023-03-01T18:11:35;19.60;36.10
45803;DHT22;31504;51.716;9.184;2023-03-01T18:14:35;19.60;36.00
45803;DHT22;31504;51.716;9.184;2023-03-01T18:17:36;19.50;35.90
45803;DHT22;31504;51.716;9.184;2023-03-01T18:20:37;19.50;35.80
45803;DHT22;31504;51.716;9.184;2023-03-01T18:23:38;19.50;35.80
45803;DHT22;31504;51.716;9.184;2023-03-01T19:07:46;19.40;35.30
45803;DHT22;31504;51.716;9.184;2023-03-01T19:10:53;19.40;35.30
45803;DHT22;31504;51.716;9.184;2023-03-01T19:13:54;19.40;35.40
45803;DHT22;31504;51.716;9.184;2023-03-01T19:16:54;19.40;35.50
45803;DHT22;31504;51.716;9.184;2023-03-01T19:19:55;19.40;35.30
45803;DHT22;31504;51.716;9.184;2023-03-01T19:22:56;19.40;35.30
45803;DHT22;31504;51.716;9.184;2023-03-01T19:26:01;19.40;35.30
45803;DHT22;31504;51.716;9.184;2023-03-01T19:29:02;19.40;35.30
45803;DHT22;31504;51.716;9.184;2023-03-01T19:32:04;19.40;35.30
45803;DHT22;31504;51.716;9.184;2023-03-01T19:35:05;19.30;35.30
45803;DHT22;31504;51.716;9.184;2023-03-01T19:38:06;19.30;35.20
45803;DHT22;31504;51.716;9.184;2023-03-01T19:41:21;19.30;35.20
45803;DHT22;31504;51.716;9.184;2023-03-01T19:44:31;19.30;35.20
45803;DHT22;31504;51.716;9.184;2023-03-01T19:47:37;19.30;35.20
45803;DHT22;31504;51.716;9.184;2023-03-01T19:50:37;19.30;35.10
45803;DHT22;31504;51.716;9.184;2023-03-01T19:53:38;19.30;35.10
45803;DHT22;31504;51.716;9.184;2023-03-01T19:56:39;19.40;35.10
45803;DHT22;31504;51.716;9.184;2023-03-01T19:59:40;19.40;35.10
45803;DHT22;31504;51.716;9.184;2023-03-01T20:02:40;19.30;35.60
45803;DHT22;31504;51.716;9.184;2023-03-01T20:05:41;19.30;35.00
45803;DHT22;31504;51.716;9.184;2023-03-01T20:08:43;19.30;34.90
45803;DHT22;31504;51.716;9.184;2023-03-01T20:11:43;19.30;35.00
45803;DHT22;31504;51.716;9.184;2023-03-01T20:14:44;19.30;35.00
45803;DHT22;31504;51.716;9.184;2023-03-01T20:17:45;19.30;35.00
45803;DHT22;31504;51.716;9.184;2023-03-01T20:20:48;19.30;34.90
45803;DHT22;31504;51.716;9.184;2023-03-01T20:23:49;19.30;34.80
45803;DHT22;31504;51.716;9.184;2023-03-01T20:26:50;19.30;34.80
45803;DHT22;31504;51.716;9.184;2023-03-01T20:29:50;19.30;34.80
45803;DHT22;31504;51.716;9.184;2023-03-01T20:32:50;19.30;34.80
45803;DHT22;31504;51.716;9.184;2023-03-01T20:35:51;19.30;34.80
45803;DHT22;31504;51.716;9.184;2023-03-01T20:38:52;19.30;34.70
45803;DHT22;31504;51.716;9.184;2023-03-01T20:41:52;19.30;34.70
45803;DHT22;31504;51.716;9.184;2023-03-01T20:44:53;19.30;34.70
45803;DHT22;31504;51.716;9.184;2023-03-01T20:47:53;19.30;34.70
45803;DHT22;31504;51.716;9.184;2023-03-01T20:50:54;19.20;34.70
45803;DHT22;31504;51.716;9.184;2023-03-01T20:53:56;19.20;34.70
45803;DHT22;31504;51.716;9.184;2023-03-01T20:56:56;19.20;34.60
45803;DHT22;31504;51.716;9.184;2023-03-01T20:59:57;19.20;34.60
45803;DHT22;31504;51.716;9.184;2023-03-01T21:02:57;19.20;34.60
45803;DHT22;31504;51.716;9.184;2023-03-01T21:05:58;19.20;34.60